Time;durP1;ratioP1;P1;durP2;ratioP2;P2;SDS_P1;SDS_P2;PMS_P1;PMS_P2;Temp;Humidity;BMP_temperature;BMP_pressure;BME280_temperature;BME280_humidity;BME280_pressure;Samples;Min_cycle;Max_cycle;Signal;HPM_P1;HPM_P2
2021/01/17 00:00:52;;;;;;;32.45;21.05;;;-1.60;99.90;;;;;;5040015;28;20585;-71
2021/01/17 00:03:19;;;;;;;34.90;22.92;;;-1.60;99.90;;;;;;5022302;28;20526;-72
2021/01/17 00:05:47;;;;;;;33.95;23.95;;;-1.50;99.90;;;;;;5026851;28;20072;-72
2021/01/17 00:08:18;;;;;;;32.80;23.30;;;-1.60;99.90;;;;;;5024292;28;20041;-71
2021/01/17 00:10:45;;;;;;;34.13;22.65;;;-1.60;99.90;;;;;;5038445;28;20045;-71
2021/01/17 00:13:12;;;;;;;32.58;23.20;;;-1.60;99.90;;;;;;5025354;28;20151;-72
2021/01/17 00:15:38;;;;;;;35.28;23.38;;;-1.60;99.90;;;;;;5040498;28;20052;-71
2021/01/17 00:18:05;;;;;;;35.00;24.20;;;-1.60;99.90;;;;;;5026390;28;20474;-71
2021/01/17 00:20:32;;;;;;;34.67;22.95;;;-1.60;99.90;;;;;;5025148;28;20048;-71
2021/01/17 00:23:06;;;;;;;32.33;21.58;;;-1.70;99.90;;;;;;5025442;28;20063;-71
2021/01/17 00:25:33;;;;;;;36.00;23.02;;;-1.80;99.90;;;;;;5009643;28;20637;-71
2021/01/17 00:28:01;;;;;;;38.38;23.52;;;-1.80;99.90;;;;;;5026792;28;20392;-71
2021/01/17 00:30:31;;;;;;;34.25;22.85;;;-1.80;99.90;;;;;;5042743;28;20132;-72
2021/01/17 00:32:59;;;;;;;34.95;22.65;;;-1.80;99.90;;;;;;5040470;28;20072;-72
2021/01/17 00:35:28;;;;;;;40.78;23.55;;;-1.80;99.90;;;;;;5025190;28;20045;-71
2021/01/17 00:37:57;;;;;;;42.53;24.73;;;-1.90;99.90;;;;;;5023557;28;20136;-72
2021/01/17 00:40:24;;;;;;;37.88;24.08;;;-1.90;99.90;;;;;;5006513;28;20157;-70
2021/01/17 00:42:52;;;;;;;37.70;23.08;;;-1.90;99.90;;;;;;5007130;28;20053;-72
2021/01/17 00:45:19;;;;;;;36.05;23.52;;;-1.90;99.90;;;;;;4996471;28;20587;-71
2021/01/17 00:47:50;;;;;;;30.65;20.33;;;-1.90;99.90;;;;;;5010586;28;20482;-71
2021/01/17 00:50:19;;;;;;;35.40;23.70;;;-1.90;99.90;;;;;;5026152;28;20080;-71
2021/01/17 00:52:51;;;;;;;32.55;22.13;;;-1.90;99.90;;;;;;5026079;28;20124;-71
2021/01/17 00:55:18;;;;;;;40.17;23.75;;;-1.90;99.90;;;;;;5026464;28;20041;-71
2021/01/17 00:57:46;;;;;;;36.22;24.08;;;-1.90;99.90;;;;;;5026250;28;20045;-70
2021/01/17 01:00:15;;;;;;;42.88;25.85;;;-2.00;99.90;;;;;;5043333;28;20064;-72
2021/01/17 01:03:11;;;;;;;43.75;25.80;;;-1.90;99.90;;;;;;5024942;28;20076;-72
2021/01/17 01:05:37;;;;;;;40.95;24.58;;;-1.80;99.90;;;;;;5042896;28;20057;-71
2021/01/17 01:08:07;;;;;;;44.03;26.65;;;-1.80;99.90;;;;;;5029172;28;20048;-71
2021/01/17 01:10:34;;;;;;;40.03;25.75;;;-1.90;99.90;;;;;;5045485;28;20454;-71
2021/01/17 01:13:00;;;;;;;38.42;25.83;;;-1.90;99.90;;;;;;5043503;28;20122;-71
2021/01/17 01:15:27;;;;;;;46.67;25.33;;;-2.00;99.90;;;;;;5029457;28;20069;-71
2021/01/17 01:17:53;;;;;;;40.95;25.63;;;-2.00;99.90;;;;;;5029841;28;20044;-71
2021/01/17 01:20:19;;;;;;;41.58;25.13;;;-2.00;99.90;;;;;;5028512;28;20110;-72
2021/01/17 01:22:46;;;;;;;47.08;26.60;;;-2.00;99.90;;;;;;5041720;28;20053;-71
2021/01/17 01:25:13;;;;;;;38.33;24.63;;;-1.90;99.90;;;;;;5019338;28;20126;-71
2021/01/17 01:27:39;;;;;;;39.65;24.05;;;-2.00;99.90;;;;;;5046034;28;20412;-71
2021/01/17 01:30:06;;;;;;;37.85;21.58;;;-2.00;99.90;;;;;;5029796;28;20573;-71
2021/01/17 01:32:32;;;;;;;46.25;24.67;;;-2.00;99.90;;;;;;5026335;28;20121;-71
2021/01/17 01:34:59;;;;;;;44.25;25.08;;;-2.00;99.90;;;;;;5045619;28;20133;-71
2021/01/17 01:37:26;;;;;;;40.28;23.38;;;-2.00;99.90;;;;;;5041694;28;20411;-71
2021/01/17 01:39:52;;;;;;;47.63;27.10;;;-2.00;99.90;;;;;;5045953;28;20045;-72
2021/01/17 01:42:18;;;;;;;44.00;26.30;;;-2.00;99.90;;;;;;5045554;28;20114;-72
2021/01/17 01:44:45;;;;;;;45.97;27.42;;;-1.90;99.90;;;;;;5046008;28;20131;-72
2021/01/17 01:47:21;;;;;;;40.55;24.15;;;-2.00;99.90;;;;;;5044982;28;20048;-72
2021/01/17 01:49:48;;;;;;;50.60;27.40;;;-2.00;99.90;;;;;;5047705;28;20198;-72
2021/01/17 01:52:15;;;;;;;45.20;26.23;;;-2.00;99.90;;;;;;5043901;28;20060;-71
2021/01/17 01:54:41;;;;;;;48.83;25.60;;;-1.90;99.90;;;;;;5045551;28;20084;-71
2021/01/17 01:57:09;;;;;;;42.13;24.40;;;-2.00;99.90;;;;;;5046778;28;20111;-71
2021/01/17 01:59:35;;;;;;;44.55;25.17;;;-1.90;99.90;;;;;;5028015;28;20060;-72
2021/01/17 02:02:07;;;;;;;45.17;25.70;;;-1.90;99.90;;;;;;5026206;28;20087;-71
2021/01/17 02:04:35;;;;;;;45.50;26.05;;;-1.80;99.90;;;;;;5027641;28;20134;-72
2021/01/17 02:07:33;;;;;;;43.72;25.80;;;-1.80;99.90;;;;;;5027913;28;20156;-72
2021/01/17 02:09:59;;;;;;;48.13;25.73;;;-1.90;99.90;;;;;;5045749;28;20057;-71
2021/01/17 02:12:56;;;;;;;48.22;26.35;;;-1.90;99.90;;;;;;5044667;28;20057;-71
2021/01/17 02:15:28;;;;;;;42.45;24.38;;;-1.90;99.90;;;;;;5024975;28;20719;-71
2021/01/17 02:17:55;;;;;;;39.53;24.42;;;-2.00;99.90;;;;;;5057591;28;20041;-72
2021/01/17 02:20:23;;;;;;;33.60;20.60;;;-2.00;99.90;;;;;;5044570;28;20631;-72
2021/01/17 02:23:02;;;;;;;45.17;24.65;;;-1.90;99.90;;;;;;5037044;28;20053;-72
2021/01/17 02:25:31;;;;;;;39.95;23.10;;;-2.00;99.90;;;;;;5008505;28;20116;-72
2021/01/17 02:28:00;;;;;;;39.10;24.02;;;-2.00;99.90;;;;;;5025389;28;20045;-72
2021/01/17 02:30:30;;;;;;;50.13;25.83;;;-2.00;99.90;;;;;;5040683;28;20048;-72
2021/01/17 02:33:00;;;;;;;41.67;24.58;;;-2.00;99.90;;;;;;5038844;28;20067;-71
2021/01/17 02:35:29;;;;;;;50.03;28.10;;;-1.90;99.90;;;;;;5024923;28;20053;-72
2021/01/17 02:38:09;;;;;;;43.80;24.40;;;-1.90;99.90;;;;;;5040814;28;20049;-71
2021/01/17 02:41:04;;;;;;;47.22;26.77;;;-1.90;99.90;;;;;;5027454;28;20553;-72
2021/01/17 02:43:31;;;;;;;48.08;28.00;;;-1.80;99.90;;;;;;5027255;28;20052;-72
2021/01/17 02:45:58;;;;;;;53.28;25.85;;;-1.80;99.90;;;;;;5041028;28;20104;-72
2021/01/17 02:48:25;;;;;;;48.15;26.00;;;-1.80;99.90;;;;;;5008425;28;20064;-72
2021/01/17 02:50:51;;;;;;;51.53;27.42;;;-1.80;99.90;;;;;;5010272;28;20051;-72
2021/01/17 02:53:31;;;;;;;52.80;26.50;;;-1.80;99.90;;;;;;5010881;28;20126;-71
2021/01/17 02:55:59;;;;;;;46.45;27.25;;;-1.80;99.90;;;;;;5044188;28;20216;-71
2021/01/17 02:58:27;;;;;;;49.58;26.73;;;-1.80;99.90;;;;;;5045018;28;20052;-72
2021/01/17 03:00:57;;;;;;;52.65;28.83;;;-1.90;99.90;;;;;;5041747;28;20050;-71
2021/01/17 03:03:39;;;;;;;50.05;27.98;;;-1.90;99.90;;;;;;5042149;28;20069;-71
2021/01/17 03:06:07;;;;;;;51.65;27.77;;;-2.00;99.90;;;;;;5022538;28;20099;-71
2021/01/17 03:08:36;;;;;;;53.78;28.73;;;-2.00;99.90;;;;;;5041273;28;20111;-71
2021/01/17 03:11:03;;;;;;;52.35;27.90;;;-2.00;99.90;;;;;;5006882;28;20064;-71
2021/01/17 03:13:31;;;;;;;53.15;28.02;;;-2.00;99.90;;;;;;5027077;28;20049;-71
2021/01/17 03:15:57;;;;;;;62.58;31.15;;;-2.00;99.90;;;;;;5023408;28;20124;-71
2021/01/17 03:18:24;;;;;;;57.83;28.13;;;-2.00;99.90;;;;;;5044661;28;20049;-72
2021/01/17 03:20:50;;;;;;;57.13;27.40;;;-2.00;99.90;;;;;;5010039;28;20051;-70
2021/01/17 03:23:17;;;;;;;54.55;29.13;;;-1.90;99.90;;;;;;5052450;28;20041;-71
2021/01/17 03:25:43;;;;;;;64.15;29.95;;;-1.90;99.90;;;;;;5027191;28;20040;-71
2021/01/17 03:28:10;;;;;;;60.50;31.33;;;-1.90;99.90;;;;;;5037578;28;20044;-72
2021/01/17 03:30:37;;;;;;;61.92;32.25;;;-2.00;99.90;;;;;;5059135;28;20041;-71
2021/01/17 03:33:03;;;;;;;57.33;29.17;;;-2.00;99.90;;;;;;5037085;28;20044;-71
2021/01/17 03:35:31;;;;;;;52.40;28.90;;;-2.00;99.90;;;;;;5019257;28;20045;-72
2021/01/17 03:37:58;;;;;;;59.53;30.95;;;-2.00;99.90;;;;;;5020730;28;20060;-71
2021/01/17 03:40:26;;;;;;;63.72;30.83;;;-1.90;99.90;;;;;;5022049;28;20195;-71
2021/01/17 03:42:52;;;;;;;50.47;27.50;;;-1.90;99.90;;;;;;5022854;28;20045;-71
2021/01/17 03:45:18;;;;;;;60.65;30.65;;;-2.00;99.90;;;;;;5010278;28;20046;-71
2021/01/17 03:47:45;;;;;;;62.85;31.40;;;-2.00;99.90;;;;;;5025064;28;20131;-71
2021/01/17 03:50:12;;;;;;;64.95;31.13;;;-1.90;99.90;;;;;;5045577;28;20052;-72
2021/01/17 03:52:39;;;;;;;66.97;33.55;;;-1.90;99.90;;;;;;5019606;28;20713;-71
2021/01/17 03:55:06;;;;;;;62.45;30.90;;;-1.90;99.90;;;;;;5025374;28;20136;-72
2021/01/17 03:57:33;;;;;;;66.25;32.13;;;-1.90;99.90;;;;;;4991740;28;20053;-71
2021/01/17 03:59:59;;;;;;;61.67;33.50;;;-1.90;99.90;;;;;;5023750;28;20585;-72
2021/01/17 04:02:26;;;;;;;72.15;33.42;;;-1.90;99.90;;;;;;5017372;28;20045;-71
2021/01/17 04:04:52;;;;;;;58.40;31.95;;;-1.90;99.90;;;;;;5022617;28;20111;-72
2021/01/17 04:07:19;;;;;;;63.28;32.38;;;-1.90;99.90;;;;;;5006466;28;20136;-72
2021/01/17 04:09:45;;;;;;;61.78;31.02;;;-1.90;99.90;;;;;;4988206;28;20076;-71
2021/01/17 04:12:11;;;;;;;71.03;34.08;;;-1.90;99.90;;;;;;4989408;28;20103;-71
2021/01/17 04:14:38;;;;;;;64.55;31.48;;;-2.00;99.90;;;;;;5001923;28;20124;-72
2021/01/17 04:17:04;;;;;;;66.03;32.75;;;-1.90;99.90;;;;;;5016498;28;20126;-71
2021/01/17 04:19:31;;;;;;;60.85;32.08;;;-1.90;99.90;;;;;;5023709;28;20050;-71
2021/01/17 04:21:57;;;;;;;66.32;34.03;;;-1.90;99.90;;;;;;5006198;28;20250;-72
2021/01/17 04:24:24;;;;;;;66.10;33.50;;;-1.90;99.90;;;;;;5015487;28;20132;-71
2021/01/17 04:26:56;;;;;;;67.07;31.88;;;-1.90;99.90;;;;;;5007014;28;20107;-71
2021/01/17 04:29:23;;;;;;;65.00;33.60;;;-1.90;99.90;;;;;;4987861;28;20508;-72
2021/01/17 04:31:49;;;;;;;68.00;33.55;;;-1.90;99.90;;;;;;5011486;28;20092;-71
2021/01/17 04:34:16;;;;;;;70.82;34.35;;;-1.90;99.90;;;;;;5022419;28;20144;-72
2021/01/17 04:36:47;;;;;;;67.05;33.90;;;-1.90;99.90;;;;;;5018288;28;20047;-72
2021/01/17 04:39:14;;;;;;;61.78;32.90;;;-1.80;99.90;;;;;;5026058;28;20049;-72
2021/01/17 04:41:42;;;;;;;71.07;33.90;;;-1.80;99.90;;;;;;5025840;28;20069;-71
2021/01/17 04:44:10;;;;;;;66.80;33.25;;;-1.80;99.90;;;;;;5027270;28;20131;-71
2021/01/17 04:46:38;;;;;;;62.00;33.85;;;-1.90;99.90;;;;;;5001540;28;20046;-72
2021/01/17 04:49:08;;;;;;;67.22;33.92;;;-1.90;99.90;;;;;;5027177;28;20112;-72
2021/01/17 04:51:35;;;;;;;63.38;32.03;;;-2.00;99.90;;;;;;5025345;28;20773;-72
2021/01/17 04:54:04;;;;;;;58.15;31.13;;;-1.90;99.90;;;;;;4990118;28;20042;-71
2021/01/17 04:56:57;;;;;;;66.15;33.97;;;-1.90;99.90;;;;;;5007090;28;20045;-72
2021/01/17 04:59:29;;;;;;;63.72;32.78;;;-1.90;99.90;;;;;;4977214;28;20515;-74
2021/01/17 05:02:25;;;;;;;50.85;25.15;;;-2.00;99.90;;;;;;5019110;28;20052;-71
2021/01/17 05:05:09;;;;;;;68.55;33.30;;;-2.00;99.90;;;;;;5009722;28;20534;-71
2021/01/17 05:07:37;;;;;;;68.95;34.17;;;-1.90;99.90;;;;;;5045405;28;20056;-72
2021/01/17 05:10:10;;;;;;;67.05;32.97;;;-1.90;99.90;;;;;;5055119;28;20052;-72
2021/01/17 05:12:46;;;;;;;67.13;33.83;;;-1.90;99.90;;;;;;5044116;28;20191;-71
2021/01/17 05:15:18;;;;;;;59.72;32.38;;;-1.80;99.90;;;;;;5044448;28;20491;-71
2021/01/17 05:17:45;;;;;;;62.13;32.75;;;-1.90;99.90;;;;;;5009441;28;20442;-72
2021/01/17 05:20:12;;;;;;;62.75;33.47;;;-1.80;99.90;;;;;;5009791;28;20137;-72
2021/01/17 05:22:38;;;;;;;69.43;35.55;;;-1.90;99.90;;;;;;4992602;28;20050;-71
2021/01/17 05:25:07;;;;;;;70.07;34.72;;;-2.00;99.90;;;;;;5009653;28;20057;-72
2021/01/17 05:27:36;;;;;;;72.22;36.28;;;-2.00;99.90;;;;;;5010432;28;20135;-72
2021/01/17 05:30:05;;;;;;;70.50;34.15;;;-1.90;99.90;;;;;;5026887;28;20088;-71
2021/01/17 05:32:32;;;;;;;68.97;35.70;;;-1.90;99.90;;;;;;5008025;28;20041;-71
2021/01/17 05:35:00;;;;;;;79.20;36.50;;;-1.90;99.90;;;;;;5012610;28;20056;-72
2021/01/17 05:37:31;;;;;;;76.57;37.17;;;-2.00;99.90;;;;;;5022233;28;20048;-72
2021/01/17 05:40:05;;;;;;;72.55;37.35;;;-2.10;99.90;;;;;;5026365;28;20128;-72
2021/01/17 05:42:34;;;;;;;66.43;33.35;;;-2.00;99.90;;;;;;5025542;28;20049;-71
2021/01/17 05:45:13;;;;;;;72.18;36.15;;;-2.00;99.90;;;;;;5009262;28;20053;-72
2021/01/17 05:47:51;;;;;;;76.65;37.17;;;-2.00;99.90;;;;;;5026424;28;20073;-72
2021/01/17 05:50:19;;;;;;;74.65;34.33;;;-2.00;99.90;;;;;;5024648;28;20053;-72
2021/01/17 05:52:56;;;;;;;77.75;35.15;;;-2.00;99.90;;;;;;5009015;28;20415;-71
2021/01/17 05:55:29;;;;;;;77.90;37.95;;;-2.00;99.90;;;;;;5009448;28;20084;-71
2021/01/17 05:58:15;;;;;;;76.68;36.72;;;-2.00;99.90;;;;;;5009544;28;20076;-71
2021/01/17 06:00:42;;;;;;;79.78;37.17;;;-2.00;99.90;;;;;;5006618;28;20042;-71
2021/01/17 06:03:09;;;;;;;78.45;34.95;;;-2.00;99.90;;;;;;5020505;28;20061;-72
2021/01/17 06:05:37;;;;;;;74.15;35.60;;;-2.00;99.90;;;;;;5006178;28;20053;-71
2021/01/17 06:08:04;;;;;;;81.72;38.30;;;-2.00;99.90;;;;;;5024382;28;20057;-71
2021/01/17 06:10:31;;;;;;;80.97;38.53;;;-2.00;99.90;;;;;;4992752;28;20060;-72
2021/01/17 06:12:58;;;;;;;78.60;38.78;;;-2.00;99.90;;;;;;5024302;28;20049;-72
2021/01/17 06:15:32;;;;;;;76.65;36.30;;;-2.00;99.90;;;;;;5007675;28;20042;-72
2021/01/17 06:18:00;;;;;;;77.57;37.40;;;-2.00;99.90;;;;;;5020821;28;20049;-72
2021/01/17 06:20:31;;;;;;;83.40;39.45;;;-1.90;99.90;;;;;;5023599;28;20046;-71
2021/01/17 06:23:00;;;;;;;85.00;37.35;;;-2.00;99.90;;;;;;5024550;28;20061;-72
2021/01/17 06:25:27;;;;;;;85.70;38.65;;;-1.90;99.90;;;;;;5024692;28;20080;-71
2021/01/17 06:28:11;;;;;;;85.28;40.65;;;-1.80;99.90;;;;;;5025775;28;20068;-72
2021/01/17 06:30:39;;;;;;;79.57;39.38;;;-1.80;99.90;;;;;;5005267;28;20053;-72
2021/01/17 06:33:21;;;;;;;84.85;38.45;;;-1.80;99.90;;;;;;4990290;28;20067;-72
2021/01/17 06:36:15;;;;;;;80.85;37.33;;;-1.90;99.90;;;;;;5004569;28;20059;-72
2021/01/17 06:38:43;;;;;;;85.63;41.55;;;-1.80;99.90;;;;;;5024556;28;20045;-71
2021/01/17 06:41:12;;;;;;;85.65;39.95;;;-1.80;99.90;;;;;;5024967;28;20049;-71
2021/01/17 06:43:41;;;;;;;91.35;40.47;;;-1.80;99.90;;;;;;5024722;28;20140;-71
2021/01/17 06:46:08;;;;;;;91.18;41.78;;;-1.80;99.90;;;;;;5017091;28;20046;-71
2021/01/17 06:48:35;;;;;;;81.95;38.78;;;-1.80;99.90;;;;;;5055776;28;20044;-70
2021/01/17 06:51:21;;;;;;;93.07;43.60;;;-1.80;99.90;;;;;;5019431;28;20049;-71
2021/01/17 06:53:54;;;;;;;86.95;39.67;;;-1.80;99.90;;;;;;5024469;28;20049;-70
2021/01/17 06:56:22;;;;;;;94.72;41.08;;;-1.70;99.90;;;;;;5025145;28;20041;-71
2021/01/17 06:58:51;;;;;;;93.60;43.33;;;-1.70;99.90;;;;;;5008228;28;20045;-71
2021/01/17 07:01:27;;;;;;;94.60;43.25;;;-1.60;99.90;;;;;;5005268;28;20546;-71
2021/01/17 07:03:57;;;;;;;88.90;41.47;;;-1.70;99.90;;;;;;5020005;28;20049;-71
2021/01/17 07:07:08;;;;;;;92.43;44.35;;;-1.70;99.90;;;;;;5005478;28;20630;-71
2021/01/17 07:09:49;;;;;;;92.30;42.20;;;-1.70;99.90;;;;;;5017531;28;20061;-71
2021/01/17 07:12:53;;;;;;;87.05;39.38;;;-1.70;99.90;;;;;;5005240;28;20050;-71
2021/01/17 07:15:25;;;;;;;102.63;42.35;;;-1.70;99.90;;;;;;5006501;28;20068;-71
2021/01/17 07:18:06;;;;;;;89.53;40.67;;;-1.80;99.90;;;;;;5018935;28;20051;-72
2021/01/17 07:20:36;;;;;;;92.22;42.03;;;-1.80;99.90;;;;;;5018343;28;20734;-71
2021/01/17 07:23:04;;;;;;;102.57;42.88;;;-1.80;99.90;;;;;;5019564;28;20423;-71
2021/01/17 07:25:33;;;;;;;99.20;43.60;;;-1.80;99.90;;;;;;5021900;28;20049;-71
2021/01/17 07:28:07;;;;;;;93.40;41.55;;;-1.80;99.90;;;;;;5023258;28;20050;-71
2021/01/17 07:30:56;;;;;;;94.88;40.90;;;-1.80;99.90;;;;;;5004399;28;20061;-71
2021/01/17 07:33:38;;;;;;;106.22;44.65;;;-1.70;99.90;;;;;;5005137;28;20656;-72
2021/01/17 07:36:07;;;;;;;93.65;40.45;;;-1.70;99.90;;;;;;5016969;28;20049;-72
2021/01/17 07:38:36;;;;;;;106.80;44.83;;;-1.70;99.90;;;;;;5023702;28;20077;-71
2021/01/17 07:41:07;;;;;;;102.47;43.50;;;-1.70;99.90;;;;;;5023312;28;20122;-71
2021/01/17 07:43:39;;;;;;;106.68;45.03;;;-1.70;99.90;;;;;;5023476;28;20055;-72
2021/01/17 07:46:12;;;;;;;104.57;45.95;;;-1.60;99.90;;;;;;5019885;28;20072;-71
2021/01/17 07:48:40;;;;;;;103.18;43.28;;;-1.40;99.90;;;;;;5023204;28;20038;-71
2021/01/17 07:51:15;;;;;;;106.05;45.17;;;-1.50;99.90;;;;;;5018859;28;20629;-72
2021/01/17 07:54:12;;;;;;;111.05;46.25;;;-1.60;99.90;;;;;;5023312;28;20060;-71
2021/01/17 07:56:39;;;;;;;107.15;43.88;;;-1.60;99.90;;;;;;5024267;28;20492;-72
2021/01/17 07:59:07;;;;;;;97.97;43.85;;;-1.60;99.90;;;;;;5023295;28;20566;-71
2021/01/17 08:01:34;;;;;;;103.15;43.88;;;-1.50;99.90;;;;;;5017210;28;20045;-71
2021/01/17 08:04:03;;;;;;;108.93;46.80;;;-1.40;99.90;;;;;;5022110;28;20037;-72
2021/01/17 08:06:36;;;;;;;105.78;43.33;;;-1.40;99.90;;;;;;5004926;28;20137;-71
2021/01/17 08:09:05;;;;;;;113.50;44.72;;;-1.40;99.90;;;;;;5024999;28;20125;-71
2021/01/17 08:11:57;;;;;;;108.85;45.08;;;-1.50;99.90;;;;;;5005135;28;20034;-72
2021/01/17 08:14:30;;;;;;;102.82;45.97;;;-1.40;99.90;;;;;;5024823;28;20052;-71
2021/01/17 08:17:15;;;;;;;103.30;43.88;;;-1.40;99.90;;;;;;5025655;28;20109;-70
2021/01/17 08:20:00;;;;;;;100.78;44.38;;;-1.40;99.90;;;;;;5026760;28;20512;-72
2021/01/17 08:22:28;;;;;;;;;;;-1.40;99.90;;;;;;5026485;28;20508;-72
2021/01/17 08:24:58;;;;;;;90.40;40.30;;;-1.30;99.90;;;;;;5010158;28;20128;-72
2021/01/17 08:27:29;;;;;;;93.32;40.35;;;-1.40;99.90;;;;;;5008788;28;20110;-73
2021/01/17 08:30:07;;;;;;;98.80;43.35;;;-1.40;99.90;;;;;;5026947;28;20140;-73
2021/01/17 08:32:43;;;;;;;91.65;43.63;;;-1.50;99.90;;;;;;5022843;28;20376;-73
2021/01/17 08:35:19;;;;;;;93.38;44.05;;;-1.50;99.90;;;;;;5026171;28;20042;-72
2021/01/17 08:37:46;;;;;;;90.63;40.92;;;-1.40;99.90;;;;;;5026425;28;20125;-72
2021/01/17 08:40:18;;;;;;;106.47;46.08;;;-1.40;99.90;;;;;;5006465;28;20049;-72
2021/01/17 08:42:50;;;;;;;91.43;42.40;;;-1.20;99.90;;;;;;5005948;28;20085;-72
2021/01/17 08:45:22;;;;;;;88.57;40.90;;;-1.10;99.90;;;;;;5011784;28;20119;-72
2021/01/17 08:47:51;;;;;;;83.22;41.78;;;-1.10;99.90;;;;;;5054717;28;20045;-72
2021/01/17 08:50:37;;;;;;;89.25;41.92;;;-1.00;99.90;;;;;;5010984;28;20094;-73
2021/01/17 08:53:14;;;;;;;93.93;43.95;;;-1.10;99.90;;;;;;5044622;28;20118;-72
2021/01/17 08:55:43;;;;;;;88.38;42.88;;;-1.00;99.90;;;;;;5043806;28;20056;-71
2021/01/17 08:58:14;;;;;;;83.13;41.45;;;-1.00;99.90;;;;;;5046341;28;20072;-71
2021/01/17 09:00:53;;;;;;;95.70;44.42;;;-0.80;99.90;;;;;;5025262;28;20430;-72
2021/01/17 09:03:36;;;;;;;90.57;42.80;;;-0.80;99.90;;;;;;5046124;28;20053;-72
2021/01/17 09:06:13;;;;;;;102.25;49.22;;;-0.90;99.90;;;;;;5041124;28;20049;-72
2021/01/17 09:08:57;;;;;;;90.97;46.13;;;-0.90;99.90;;;;;;5047563;28;20049;-72
2021/01/17 09:11:27;;;;;;;89.47;44.35;;;-0.70;99.90;;;;;;5033663;28;20201;-72
2021/01/17 09:14:12;;;;;;;90.38;45.92;;;-0.70;99.90;;;;;;5046376;28;20045;-72
2021/01/17 09:17:01;;;;;;;86.13;45.90;;;-0.60;99.90;;;;;;5045740;28;20037;-72
2021/01/17 09:19:35;;;;;;;91.28;46.55;;;-0.60;99.90;;;;;;5037849;28;20122;-72
2021/01/17 09:22:04;;;;;;;84.80;41.20;;;-0.60;99.90;;;;;;5025537;28;20049;-73
2021/01/17 09:24:33;;;;;;;81.00;41.28;;;-0.60;99.90;;;;;;5032357;28;20064;-72
2021/01/17 09:27:06;;;;;;;90.85;42.97;;;-0.70;99.90;;;;;;5023955;28;20289;-72
2021/01/17 09:29:36;;;;;;;77.82;39.00;;;-0.70;99.90;;;;;;4993131;28;20049;-72
2021/01/17 09:32:07;;;;;;;85.03;43.63;;;-0.70;99.90;;;;;;5023928;28;20631;-72
2021/01/17 09:34:38;;;;;;;83.38;42.05;;;-0.70;99.90;;;;;;5008819;28;20526;-73
2021/01/17 09:37:13;;;;;;;76.75;40.75;;;-0.60;99.90;;;;;;5004519;28;20053;-74
2021/01/17 09:39:44;;;;;;;91.72;42.83;;;-0.50;99.90;;;;;;4992644;28;20049;-72
2021/01/17 09:42:13;;;;;;;80.95;42.03;;;-0.40;99.90;;;;;;5024137;28;20046;-72
2021/01/17 09:44:42;;;;;;;78.75;41.28;;;-0.40;99.90;;;;;;5023918;28;20139;-73
2021/01/17 09:47:16;;;;;;;81.78;42.05;;;-0.40;99.90;;;;;;5046599;28;20158;-72
2021/01/17 09:49:44;;;;;;;;;;;-0.30;99.90;;;;;;5043080;28;20276;-72
2021/01/17 09:52:16;;;;;;;79.63;40.88;;;-0.40;99.90;;;;;;5036963;28;19974;-72
2021/01/17 09:54:44;;;;;;;73.20;39.92;;;-0.30;99.90;;;;;;5060354;28;20479;-72
2021/01/17 09:57:15;;;;;;;69.43;38.97;;;-0.30;99.90;;;;;;5047921;28;20056;-72
2021/01/17 09:59:41;;;;;;;82.03;42.53;;;-0.30;99.90;;;;;;5035801;28;20125;-72
2021/01/17 10:02:09;;;;;;;68.82;39.58;;;-0.20;99.90;;;;;;5019573;28;20691;-71
2021/01/17 10:04:37;;;;;;;71.95;41.08;;;-0.20;99.90;;;;;;5008045;28;20140;-72
2021/01/17 10:07:04;;;;;;;74.60;39.40;;;-0.10;99.90;;;;;;5022481;28;20538;-71
2021/01/17 10:09:30;;;;;;;74.82;40.15;;;-0.20;99.90;;;;;;5024758;28;20057;-71
2021/01/17 10:11:59;;;;;;;75.63;41.25;;;-0.20;99.90;;;;;;5023806;28;20061;-71
2021/01/17 10:14:28;;;;;;;78.60;41.35;;;-0.20;99.90;;;;;;4997488;28;20057;-71
2021/01/17 10:16:57;;;;;;;72.97;41.88;;;-0.10;99.90;;;;;;5014788;28;20153;-72
2021/01/17 10:19:29;;;;;;;72.40;41.00;;;-0.10;99.90;;;;;;4991299;28;20049;-72
2021/01/17 10:21:56;;;;;;;73.72;43.90;;;-0.10;99.90;;;;;;5006852;28;20041;-72
2021/01/17 10:24:24;;;;;;;72.35;39.55;;;0.10;99.90;;;;;;5010701;28;20064;-72
2021/01/17 10:26:59;;;;;;;67.50;37.75;;;0.20;99.90;;;;;;5023887;28;20121;-71
2021/01/17 10:29:31;;;;;;;66.65;37.08;;;0.00;99.90;;;;;;4998287;28;20115;-71
2021/01/17 10:32:06;;;;;;;66.45;39.10;;;-0.10;99.90;;;;;;5007323;28;20064;-72
2021/01/17 10:34:40;;;;;;;64.85;37.30;;;0.00;99.90;;;;;;5008322;28;20041;-72
2021/01/17 10:37:16;;;;;;;75.72;42.15;;;0.10;99.90;;;;;;4991238;28;20393;-72
2021/01/17 10:39:56;;;;;;;63.88;37.22;;;0.20;99.90;;;;;;5022388;28;20049;-70
2021/01/17 10:42:23;;;;;;;68.60;39.47;;;0.10;99.90;;;;;;5038605;28;20044;-71
2021/01/17 10:45:07;;;;;;;70.18;38.33;;;0.00;99.90;;;;;;5057852;28;20062;-71
2021/01/17 10:47:55;;;;;;;69.22;40.30;;;0.00;99.90;;;;;;5027745;28;20057;-72
2021/01/17 10:50:24;;;;;;;68.80;38.47;;;0.00;99.90;;;;;;5021441;28;20050;-72
2021/01/17 10:53:17;;;;;;;71.10;39.63;;;0.10;99.90;;;;;;4988272;28;20057;-72
2021/01/17 10:55:58;;;;;;;69.40;40.92;;;0.20;99.90;;;;;;5026191;28;20052;-72
2021/01/17 10:58:27;;;;;;;65.60;39.63;;;0.30;99.90;;;;;;5009092;28;20064;-72
2021/01/17 11:00:54;;;;;;;65.82;40.47;;;0.50;99.90;;;;;;5023189;28;20076;-72
2021/01/17 11:03:35;;;;;;;75.00;46.03;;;0.40;99.90;;;;;;5046352;28;20411;-72
2021/01/17 11:06:25;;;;;;;67.25;41.65;;;0.50;99.90;;;;;;5011357;28;20108;-72
2021/01/17 11:08:55;;;;;;;69.97;43.90;;;0.50;99.90;;;;;;5044511;28;20072;-71
2021/01/17 11:11:24;;;;;;;67.95;40.42;;;0.50;99.90;;;;;;5043049;28;20075;-72
2021/01/17 11:14:02;;;;;;;71.22;45.80;;;0.50;99.90;;;;;;5055052;28;20574;-72
2021/01/17 11:16:51;;;;;;;58.63;36.55;;;0.50;99.90;;;;;;5038317;28;20079;-71
2021/01/17 11:19:18;;;;;;;62.28;38.38;;;0.50;99.90;;;;;;5034646;28;20083;-72
2021/01/17 11:21:46;;;;;;;66.25;39.47;;;0.50;99.90;;;;;;5014347;28;20484;-73
2021/01/17 11:24:13;;;;;;;68.22;37.40;;;0.50;99.90;;;;;;5023134;28;20699;-73
2021/01/17 11:26:41;;;;;;;65.45;37.05;;;0.50;99.90;;;;;;5023600;28;20151;-73
2021/01/17 11:29:16;;;;;;;66.45;39.47;;;0.60;99.90;;;;;;5053514;28;20055;-73
2021/01/17 11:31:46;;;;;;;63.10;38.00;;;0.70;99.90;;;;;;5029555;28;20156;-73
2021/01/17 11:34:16;;;;;;;68.75;38.33;;;0.70;99.90;;;;;;5020965;28;20073;-73
2021/01/17 11:36:43;;;;;;;73.00;44.63;;;0.70;99.90;;;;;;5004231;28;20110;-73
2021/01/17 11:39:19;;;;;;;64.80;40.40;;;0.70;99.90;;;;;;5059624;28;20078;-73
2021/01/17 11:41:45;;;;;;;70.57;41.50;;;0.70;99.90;;;;;;5042187;28;20048;-73
2021/01/17 11:44:20;;;;;;;68.63;40.42;;;0.70;99.90;;;;;;5040935;28;20048;-73
2021/01/17 11:46:48;;;;;;;66.57;40.70;;;0.80;99.90;;;;;;5027678;28;20053;-72
2021/01/17 11:49:21;;;;;;;72.22;44.88;;;0.80;99.90;;;;;;5007254;28;20115;-73
2021/01/17 11:51:47;;;;;;;71.32;42.50;;;0.80;99.90;;;;;;5021861;28;20045;-73
2021/01/17 11:54:17;;;;;;;70.30;40.92;;;0.90;99.90;;;;;;4992008;28;20053;-74
2021/01/17 11:56:44;;;;;;;69.38;41.15;;;1.00;99.90;;;;;;5029611;28;20131;-74
2021/01/17 11:59:31;;;;;;;62.45;38.65;;;1.00;99.90;;;;;;5024185;28;20052;-74
2021/01/17 12:02:22;;;;;;;65.53;38.72;;;0.90;99.90;;;;;;5007940;28;20132;-75
2021/01/17 12:05:00;;;;;;;72.03;41.22;;;0.80;99.90;;;;;;5027177;28;20052;-75
2021/01/17 12:07:26;;;;;;;71.10;42.65;;;0.80;99.90;;;;;;5017266;28;20061;-75
2021/01/17 12:10:10;;;;;;;75.15;40.38;;;0.80;99.90;;;;;;4997478;28;20068;-75
2021/01/17 12:12:38;;;;;;;67.60;40.65;;;0.80;99.90;;;;;;5021989;28;20143;-74
2021/01/17 12:15:08;;;;;;;78.93;48.60;;;0.90;99.90;;;;;;5025771;28;20084;-75
2021/01/17 12:17:35;;;;;;;70.97;42.10;;;1.00;99.90;;;;;;5026015;28;20075;-75
2021/01/17 12:20:03;;;;;;;61.25;37.83;;;1.00;99.90;;;;;;5026096;28;20362;-75
2021/01/17 12:22:30;;;;;;;69.15;39.95;;;0.90;99.90;;;;;;5037356;28;20056;-75
2021/01/17 12:24:56;;;;;;;73.63;42.72;;;0.80;99.90;;;;;;5027391;28;20139;-75
2021/01/17 12:27:23;;;;;;;67.40;40.20;;;0.70;99.90;;;;;;5041969;28;20045;-75
2021/01/17 12:29:49;;;;;;;69.22;44.63;;;0.70;99.90;;;;;;5044142;28;20069;-75
2021/01/17 12:32:16;;;;;;;63.85;42.70;;;0.80;99.90;;;;;;5039106;28;20073;-75
2021/01/17 12:34:43;;;;;;;67.18;40.83;;;0.80;99.90;;;;;;5026489;28;20582;-74
2021/01/17 12:37:09;;;;;;;54.88;36.20;;;0.80;99.90;;;;;;5011166;28;20049;-75
2021/01/17 12:39:36;;;;;;;63.80;40.50;;;0.80;99.90;;;;;;5043508;28;20485;-75
2021/01/17 12:42:03;;;;;;;63.00;38.25;;;0.90;99.90;;;;;;5042505;28;20051;-75
2021/01/17 12:44:31;;;;;;;68.65;42.53;;;0.90;99.90;;;;;;5008933;28;20147;-75
2021/01/17 12:46:57;;;;;;;104.68;54.28;;;0.90;99.90;;;;;;5006126;28;20468;-75
2021/01/17 12:49:24;;;;;;;104.00;52.03;;;0.90;99.90;;;;;;5023512;28;20450;-75